createdAt,value
2019-03-26T00:01:01.312Z,3.17
2019-03-26T00:03:29.992Z,3.40
2019-03-26T00:05:58.224Z,3.55
2019-03-26T00:08:26.535Z,3.50
2019-03-26T00:10:55.013Z,2.90
2019-03-26T00:13:24.181Z,3.10
2019-03-26T00:15:52.411Z,2.83
2019-03-26T00:18:20.766Z,3.40
2019-03-26T00:20:49.642Z,3.30
2019-03-26T00:23:18.265Z,3.40
2019-03-26T00:25:47.066Z,2.73
2019-03-26T00:28:15.266Z,2.75
2019-03-26T00:30:45.331Z,2.83
2019-03-26T00:33:14.144Z,3.40
2019-03-26T00:35:42.762Z,2.90
2019-03-26T00:38:10.985Z,3.40
2019-03-26T00:40:42.597Z,3.50
2019-03-26T00:43:11.356Z,3.40
2019-03-26T00:45:40.334Z,3.60
2019-03-26T00:48:08.514Z,3.60
2019-03-26T00:50:36.714Z,3.60
2019-03-26T00:53:05.254Z,3.30
2019-03-26T00:55:33.883Z,4.17
2019-03-26T00:58:02.476Z,3.80
2019-03-26T01:00:37.549Z,4.50
2019-03-26T01:03:06.748Z,4.80
2019-03-26T01:05:52.966Z,4.37
2019-03-26T01:08:21.562Z,4.70
2019-03-26T01:10:49.989Z,5.03
2019-03-26T01:13:18.575Z,5.08
2019-03-26T01:15:47.491Z,4.97
2019-03-26T01:18:15.729Z,5.08
2019-03-26T01:20:44.192Z,5.20
2019-03-26T01:23:13.234Z,5.83
2019-03-26T01:27:17.420Z,5.45
2019-03-26T01:29:45.954Z,5.20
2019-03-26T01:32:14.816Z,5.40
2019-03-26T01:34:46.305Z,5.42
2019-03-26T01:37:13.514Z,4.97
2019-03-26T01:39:42.004Z,5.50
2019-03-26T01:42:10.507Z,4.80
2019-03-26T01:44:41.096Z,5.58
2019-03-26T01:47:11.921Z,5.30
2019-03-26T01:49:40.282Z,5.37
2019-03-26T01:52:08.642Z,5.00
2019-03-26T01:54:38.199Z,5.60
2019-03-26T01:57:07.569Z,5.50
2019-03-26T01:59:36.341Z,5.10
2019-03-26T02:02:04.812Z,5.20
2019-03-26T02:04:44.371Z,5.30
2019-03-26T02:07:13.244Z,5.30
2019-03-26T02:09:43.373Z,5.70
2019-03-26T02:12:11.578Z,5.70
2019-03-26T02:14:40.328Z,5.97
2019-03-26T02:17:08.813Z,5.80
2019-03-26T02:19:37.398Z,5.83
2019-03-26T02:22:05.592Z,6.28
2019-03-26T02:24:34.028Z,5.08
2019-03-26T02:27:03.628Z,5.20
2019-03-26T02:29:32.488Z,5.45
2019-03-26T02:32:01.393Z,5.25
2019-03-26T02:34:40.562Z,4.70
2019-03-26T02:37:09.534Z,4.50
2019-03-26T02:39:46.804Z,4.28
2019-03-26T02:42:15.328Z,4.20
2019-03-26T02:44:43.580Z,4.00
2019-03-26T02:47:11.762Z,3.85
2019-03-26T02:49:39.977Z,3.70
2019-03-26T02:52:09.674Z,4.03
2019-03-26T02:54:37.880Z,4.03
2019-03-26T02:57:06.387Z,3.95
2019-03-26T02:59:34.912Z,3.90
2019-03-26T03:02:03.135Z,3.65
2019-03-26T03:04:31.669Z,3.50
2019-03-26T03:07:00.731Z,3.20
2019-03-26T03:09:28.924Z,3.70
2019-03-26T03:11:57.512Z,3.50
2019-03-26T03:14:26.848Z,3.40
2019-03-26T03:16:55.722Z,3.12
2019-03-26T03:19:24.290Z,3.10
2019-03-26T03:21:52.524Z,3.20
2019-03-26T03:24:20.700Z,3.20
2019-03-26T03:26:49.242Z,3.02
2019-03-26T03:29:17.458Z,3.20
2019-03-26T03:31:45.651Z,3.15
2019-03-26T03:34:14.173Z,3.00
2019-03-26T03:36:42.719Z,2.80
2019-03-26T03:39:11.217Z,3.10
2019-03-26T03:41:39.774Z,3.05
2019-03-26T03:44:07.963Z,3.02
2019-03-26T03:46:36.561Z,3.00
2019-03-26T03:49:05.179Z,2.70
2019-03-26T03:51:34.480Z,2.72
2019-03-26T03:54:03.222Z,3.10
2019-03-26T03:56:32.314Z,3.17
2019-03-26T03:59:01.652Z,3.10
2019-03-26T04:01:29.843Z,3.30
2019-03-26T04:03:58.045Z,3.05
2019-03-26T04:06:26.546Z,3.25
2019-03-26T04:08:55.067Z,3.55
2019-03-26T04:11:23.295Z,2.90
2019-03-26T04:13:51.796Z,3.05
2019-03-26T04:16:19.988Z,3.00
2019-03-26T04:18:48.174Z,3.30
2019-03-26T04:21:16.811Z,3.47
2019-03-26T04:23:45.639Z,2.80
2019-03-26T04:26:14.130Z,3.40
2019-03-26T04:28:43.084Z,3.90
2019-03-26T04:31:11.321Z,3.20
2019-03-26T04:33:40.095Z,3.40
2019-03-26T04:36:24.105Z,3.62
2019-03-26T04:38:38.919Z,3.62
2019-03-26T04:41:07.479Z,3.52
2019-03-26T04:43:36.574Z,3.60
2019-03-26T04:46:05.113Z,3.02
2019-03-26T04:48:33.746Z,3.42
2019-03-26T04:51:02.631Z,3.85
2019-03-26T04:53:34.003Z,3.70
2019-03-26T04:56:00.784Z,3.50
2019-03-26T04:58:29.097Z,3.33
2019-03-26T05:00:57.339Z,3.52
2019-03-26T05:03:25.938Z,3.72
2019-03-26T05:05:54.154Z,3.83
2019-03-26T05:08:23.035Z,3.90
2019-03-26T05:10:51.596Z,3.60
2019-03-26T05:13:20.027Z,3.60
2019-03-26T05:15:48.597Z,3.90
2019-03-26T05:18:17.164Z,3.65
2019-03-26T05:20:45.412Z,3.98
2019-03-26T05:23:13.955Z,3.47
2019-03-26T05:25:42.809Z,3.37
2019-03-26T05:28:11.075Z,3.52
2019-03-26T05:30:39.656Z,3.60
2019-03-26T05:33:08.246Z,3.42
2019-03-26T05:35:36.507Z,3.67
2019-03-26T05:38:05.079Z,3.50
2019-03-26T05:40:33.692Z,3.30
2019-03-26T05:43:02.278Z,3.30
2019-03-26T05:45:30.464Z,3.70
2019-03-26T05:47:59.050Z,3.15
2019-03-26T05:50:27.523Z,3.55
2019-03-26T05:52:56.409Z,3.40
2019-03-26T05:55:24.952Z,3.65
2019-03-26T05:57:53.582Z,3.10
2019-03-26T06:00:23.817Z,3.27
2019-03-26T06:02:52.066Z,3.50
2019-03-26T06:05:20.977Z,4.22
2019-03-26T06:07:50.106Z,5.20
2019-03-26T06:10:18.604Z,3.50
2019-03-26T06:12:50.103Z,3.50
2019-03-26T06:15:17.325Z,2.90
2019-03-26T06:17:45.859Z,3.08
2019-03-26T06:20:14.779Z,2.90
2019-03-26T06:22:43.274Z,2.60
2019-03-26T06:25:14.570Z,2.37
2019-03-26T06:27:43.100Z,2.50
2019-03-26T06:30:12.245Z,2.30
2019-03-26T06:32:40.722Z,2.60
2019-03-26T06:35:09.405Z,2.37
2019-03-26T06:37:38.090Z,2.40
2019-03-26T06:40:07.965Z,2.33
2019-03-26T06:42:36.485Z,3.22
2019-03-26T06:45:05.918Z,2.47
2019-03-26T06:47:34.200Z,2.42
2019-03-26T06:50:02.829Z,2.42
2019-03-26T06:52:31.621Z,2.27
2019-03-26T06:55:00.248Z,2.50
2019-03-26T06:57:35.509Z,2.55
2019-03-26T06:59:58.774Z,2.30
2019-03-26T07:02:27.321Z,1.97
2019-03-26T07:04:55.568Z,2.50
2019-03-26T07:07:31.344Z,2.70
2019-03-26T07:09:54.409Z,2.50
2019-03-26T07:12:22.958Z,2.80
2019-03-26T07:14:51.292Z,2.33
2019-03-26T07:17:19.570Z,2.52
2019-03-26T07:19:48.378Z,2.25
2019-03-26T07:22:16.681Z,2.30
2019-03-26T07:24:44.942Z,2.27
2019-03-26T07:27:14.044Z,2.70
2019-03-26T07:29:42.545Z,2.37
2019-03-26T07:32:11.422Z,2.10
2019-03-26T07:34:39.926Z,2.90
2019-03-26T07:37:08.268Z,2.40
2019-03-26T07:39:38.990Z,2.40
2019-03-26T07:42:06.667Z,2.35
2019-03-26T07:44:34.908Z,2.42
2019-03-26T07:47:03.182Z,2.20
2019-03-26T07:49:31.753Z,2.60
2019-03-26T07:52:00.284Z,2.30
2019-03-26T07:54:29.038Z,3.40
2019-03-26T07:56:57.286Z,3.33
2019-03-26T07:59:25.608Z,2.52
2019-03-26T08:01:54.158Z,2.10
2019-03-26T08:04:22.449Z,2.25
2019-03-26T08:06:50.707Z,2.30
2019-03-26T08:09:19.004Z,2.50
2019-03-26T08:11:47.886Z,2.75
2019-03-26T08:14:16.117Z,2.35
2019-03-26T08:16:44.656Z,2.70
2019-03-26T08:19:13.221Z,2.90
2019-03-26T08:21:41.717Z,2.52
2019-03-26T08:24:10.199Z,2.90
2019-03-26T08:26:38.449Z,2.30
2019-03-26T08:29:07.421Z,2.33
2019-03-26T08:31:35.627Z,1.92
2019-03-26T08:34:04.192Z,2.35
2019-03-26T08:36:32.409Z,2.33
2019-03-26T08:39:01.297Z,2.50
2019-03-26T08:41:29.505Z,2.40
2019-03-26T08:43:57.729Z,2.15
2019-03-26T08:46:25.957Z,2.55
2019-03-26T08:48:54.465Z,2.30
2019-03-26T08:51:22.676Z,2.20
2019-03-26T08:53:50.888Z,2.20
2019-03-26T08:56:19.430Z,1.75
2019-03-26T08:58:48.509Z,2.90
2019-03-26T09:01:17.089Z,2.10
2019-03-26T09:03:46.009Z,1.65
2019-03-26T09:06:14.830Z,2.60
2019-03-26T09:08:43.055Z,1.50
2019-03-26T09:11:11.295Z,1.70
2019-03-26T09:13:40.124Z,2.20
2019-03-26T09:16:08.387Z,2.30
2019-03-26T09:18:36.755Z,1.90
2019-03-26T09:21:05.376Z,2.30
2019-03-26T09:23:33.641Z,2.47
2019-03-26T09:26:01.882Z,2.10
2019-03-26T09:28:30.818Z,2.10
2019-03-26T09:30:59.607Z,2.35
2019-03-26T09:33:28.184Z,1.80
2019-03-26T09:35:57.050Z,1.80
2019-03-26T09:38:38.488Z,2.30
2019-03-26T09:40:55.847Z,2.30
2019-03-26T09:43:24.380Z,1.80
2019-03-26T09:45:52.948Z,2.10
2019-03-26T09:48:21.218Z,1.90
2019-03-26T09:50:50.076Z,1.80
2019-03-26T09:53:18.341Z,2.95
2019-03-26T09:55:46.875Z,2.25
2019-03-26T09:58:15.425Z,2.10
2019-03-26T10:00:44.180Z,2.95
2019-03-26T10:03:12.745Z,2.80
2019-03-26T10:05:41.349Z,2.27
2019-03-26T10:08:10.316Z,2.62
2019-03-26T10:10:38.836Z,2.30
2019-03-26T10:13:07.686Z,2.30
2019-03-26T10:15:37.860Z,2.70
2019-03-26T10:18:06.859Z,2.60
2019-03-26T10:20:35.678Z,2.22
2019-03-26T10:23:04.876Z,2.52
2019-03-26T10:25:33.141Z,1.90
2019-03-26T10:28:01.420Z,2.60
2019-03-26T10:30:33.405Z,1.80
2019-03-26T10:33:01.678Z,1.65
2019-03-26T10:35:29.900Z,2.20
2019-03-26T10:37:58.833Z,2.40
2019-03-26T10:40:30.596Z,2.00
2019-03-26T10:42:58.844Z,1.80
2019-03-26T10:45:27.127Z,1.70
2019-03-26T10:47:55.342Z,1.97
2019-03-26T10:50:24.397Z,1.80
2019-03-26T10:52:52.683Z,1.70
2019-03-26T10:55:20.933Z,1.87
2019-03-26T10:57:49.192Z,2.10
2019-03-26T11:00:18.821Z,2.40
2019-03-26T11:02:47.354Z,2.20
2019-03-26T11:05:15.699Z,2.50
2019-03-26T11:07:44.516Z,2.40
2019-03-26T11:10:13.625Z,2.83
2019-03-26T11:12:42.096Z,2.60
2019-03-26T11:15:10.890Z,2.52
2019-03-26T11:17:39.138Z,2.40
2019-03-26T11:20:07.906Z,4.92
2019-03-26T11:22:36.438Z,3.10
2019-03-26T11:25:05.225Z,2.87
2019-03-26T11:27:33.811Z,3.17
2019-03-26T11:30:02.090Z,2.45
2019-03-26T11:32:30.617Z,2.27
2019-03-26T11:34:59.173Z,2.58
2019-03-26T11:37:27.818Z,2.45
2019-03-26T11:39:56.427Z,2.30
2019-03-26T11:42:25.186Z,4.15
2019-03-26T11:44:53.469Z,3.10
2019-03-26T11:47:21.689Z,2.52
2019-03-26T11:49:50.250Z,2.10
2019-03-26T11:52:18.453Z,2.75
2019-03-26T11:54:46.717Z,2.72
2019-03-26T11:57:15.285Z,2.20
2019-03-26T11:59:43.865Z,1.90
2019-03-26T12:02:12.441Z,2.20
2019-03-26T12:04:41.242Z,2.60
2019-03-26T12:07:09.785Z,2.50
2019-03-26T12:09:46.271Z,2.00
2019-03-26T12:12:09.212Z,2.40
2019-03-26T12:14:37.721Z,2.35
2019-03-26T12:17:06.046Z,2.60
2019-03-26T12:19:34.684Z,2.45
2019-03-26T12:22:03.167Z,2.50
2019-03-26T12:24:31.674Z,2.50
2019-03-26T12:27:00.192Z,2.10
2019-03-26T12:29:28.470Z,2.35
2019-03-26T12:31:56.688Z,2.05
2019-03-26T12:34:25.469Z,2.15
2019-03-26T12:36:53.757Z,2.20
2019-03-26T12:39:22.249Z,2.15
2019-03-26T12:41:50.447Z,2.20
2019-03-26T12:44:19.097Z,2.40
2019-03-26T12:46:47.677Z,2.12
2019-03-26T12:49:15.890Z,1.92
2019-03-26T12:51:44.505Z,2.10
2019-03-26T12:54:13.011Z,1.90
2019-03-26T12:56:41.242Z,2.70
2019-03-26T12:59:09.805Z,3.05
2019-03-26T13:01:38.389Z,2.60
2019-03-26T13:04:12.486Z,3.02
2019-03-26T13:06:36.865Z,2.20
2019-03-26T13:09:06.938Z,1.90
2019-03-26T13:11:35.464Z,2.08
2019-03-26T13:14:04.569Z,2.00
2019-03-26T13:16:33.125Z,2.20
2019-03-26T13:19:01.842Z,2.00
2019-03-26T13:21:30.135Z,2.30
2019-03-26T13:23:59.296Z,2.20
2019-03-26T13:26:27.617Z,2.10
2019-03-26T13:28:55.868Z,2.20
2019-03-26T13:31:24.121Z,2.30
2019-03-26T13:33:52.727Z,2.47
2019-03-26T13:36:21.029Z,2.30
2019-03-26T13:38:49.262Z,2.05
2019-03-26T13:41:17.498Z,2.20
2019-03-26T13:43:46.340Z,1.90
2019-03-26T13:46:15.222Z,2.00
2019-03-26T13:48:43.486Z,2.00
2019-03-26T13:51:11.733Z,2.20
2019-03-26T13:53:40.224Z,1.85
2019-03-26T13:56:09.265Z,1.92
2019-03-26T13:58:37.854Z,3.20
2019-03-26T14:01:06.069Z,4.58
2019-03-26T14:03:34.312Z,2.55
2019-03-26T14:06:03.796Z,3.00
2019-03-26T14:08:32.272Z,2.60
2019-03-26T14:11:00.877Z,2.62
2019-03-26T14:13:29.113Z,2.50
2019-03-26T14:15:57.628Z,2.70
2019-03-26T14:18:25.804Z,2.30
2019-03-26T14:20:54.056Z,2.30
2019-03-26T14:23:22.977Z,2.25
2019-03-26T14:25:51.228Z,2.60
2019-03-26T14:28:19.893Z,2.90
2019-03-26T14:30:48.402Z,2.30
2019-03-26T14:33:16.673Z,2.17
2019-03-26T14:35:45.250Z,2.10
2019-03-26T14:38:13.483Z,2.40
2019-03-26T14:40:53.986Z,2.35
2019-03-26T14:43:12.021Z,2.37
2019-03-26T14:45:42.355Z,2.02
2019-03-26T14:48:10.478Z,2.17
2019-03-26T14:50:38.718Z,2.00
2019-03-26T14:53:09.220Z,2.20
2019-03-26T14:55:38.175Z,2.20
2019-03-26T14:58:06.628Z,2.40
2019-03-26T15:00:35.544Z,2.22
2019-03-26T15:03:04.790Z,4.40
2019-03-26T15:05:33.471Z,3.15
2019-03-26T15:08:02.138Z,2.30
2019-03-26T15:10:30.352Z,2.70
2019-03-26T15:12:58.798Z,2.60
2019-03-26T15:15:27.090Z,2.58
2019-03-26T15:17:55.292Z,3.83
2019-03-26T15:20:23.818Z,3.30
2019-03-26T15:22:52.378Z,2.40
2019-03-26T15:25:21.561Z,2.05
2019-03-26T15:27:50.146Z,2.50
2019-03-26T15:30:18.901Z,3.10
2019-03-26T15:32:47.837Z,2.00
2019-03-26T15:35:16.832Z,2.62
2019-03-26T15:37:45.410Z,2.33
2019-03-26T15:40:14.004Z,2.30
2019-03-26T15:42:42.603Z,2.20
2019-03-26T15:45:10.873Z,2.10
2019-03-26T15:47:39.386Z,2.00
2019-03-26T15:50:07.875Z,2.52
2019-03-26T15:52:36.109Z,2.33
2019-03-26T15:55:04.910Z,2.70
2019-03-26T15:57:33.153Z,8.30
2019-03-26T16:00:01.744Z,4.12
2019-03-26T16:02:29.999Z,3.00
2019-03-26T16:04:58.877Z,2.30
2019-03-26T16:07:27.471Z,2.58
2019-03-26T16:09:55.732Z,2.50
2019-03-26T16:12:24.308Z,4.30
2019-03-26T16:14:52.840Z,2.22
2019-03-26T16:17:21.062Z,2.80
2019-03-26T16:19:49.320Z,2.55
2019-03-26T16:22:18.167Z,2.20
2019-03-26T16:24:46.666Z,2.50
2019-03-26T16:27:14.929Z,2.00
2019-03-26T16:29:43.174Z,2.20
2019-03-26T16:32:11.398Z,2.20
2019-03-26T16:34:39.662Z,2.30
2019-03-26T16:37:08.315Z,2.20
2019-03-26T16:39:36.573Z,2.42
2019-03-26T16:42:04.811Z,2.65
2019-03-26T16:44:33.025Z,3.35
2019-03-26T16:47:02.198Z,3.17
2019-03-26T16:49:30.660Z,2.90
2019-03-26T16:51:59.457Z,2.90
2019-03-26T16:54:27.697Z,3.10
2019-03-26T16:56:55.943Z,3.00
2019-03-26T16:59:24.221Z,2.98
2019-03-26T17:01:52.444Z,3.10
2019-03-26T17:04:20.675Z,3.02
2019-03-26T17:06:49.334Z,2.55
2019-03-26T17:09:17.564Z,2.90
2019-03-26T17:11:46.146Z,3.20
2019-03-26T17:14:14.622Z,2.77
2019-03-26T17:16:43.563Z,2.60
2019-03-26T17:19:11.831Z,2.30
2019-03-26T17:21:40.376Z,2.30
2019-03-26T17:24:08.641Z,2.30
2019-03-26T17:26:37.265Z,2.70
2019-03-26T17:29:05.424Z,3.08
2019-03-26T17:31:34.049Z,3.70
2019-03-26T17:34:02.272Z,3.60
2019-03-26T17:36:31.107Z,3.30
2019-03-26T17:38:59.698Z,2.90
2019-03-26T17:41:28.899Z,3.40
2019-03-26T17:43:57.139Z,3.00
2019-03-26T17:46:25.596Z,4.67
2019-03-26T17:48:54.280Z,7.13
2019-03-26T17:51:22.845Z,4.72
2019-03-26T17:53:51.293Z,3.45
2019-03-26T17:56:20.185Z,3.40
2019-03-26T17:58:48.461Z,3.50
2019-03-26T18:01:17.032Z,4.05
2019-03-26T18:03:45.450Z,3.40
2019-03-26T18:06:13.635Z,3.17
2019-03-26T18:08:42.156Z,3.22
2019-03-26T18:11:11.039Z,3.58
2019-03-26T18:13:45.024Z,2.67
2019-03-26T18:16:13.887Z,2.87
2019-03-26T18:18:42.535Z,3.27
2019-03-26T18:21:11.171Z,3.60
2019-03-26T18:23:39.449Z,3.62
2019-03-26T18:26:08.000Z,3.20
2019-03-26T18:28:36.285Z,2.92
2019-03-26T18:31:04.812Z,2.90
2019-03-26T18:33:33.658Z,2.70
2019-03-26T18:36:02.244Z,2.90
2019-03-26T18:38:30.530Z,3.58
2019-03-26T18:40:59.102Z,3.40
2019-03-26T18:43:28.284Z,2.65
2019-03-26T18:45:57.014Z,3.30
2019-03-26T18:48:25.797Z,4.65
2019-03-26T18:50:54.145Z,4.20
2019-03-26T18:53:22.369Z,4.45
2019-03-26T18:55:50.885Z,4.28
2019-03-26T18:58:19.145Z,3.50
2019-03-26T19:00:47.402Z,3.10
2019-03-26T19:03:15.833Z,3.50
2019-03-26T19:05:44.505Z,2.80
2019-03-26T19:08:12.806Z,2.98
2019-03-26T19:10:41.285Z,2.27
2019-03-26T19:13:19.231Z,2.00
2019-03-26T19:15:39.649Z,2.00
2019-03-26T19:18:07.934Z,2.07
2019-03-26T19:20:36.161Z,2.80
2019-03-26T19:23:04.935Z,2.60
2019-03-26T19:25:33.521Z,2.02
2019-03-26T19:28:01.767Z,2.12
2019-03-26T19:30:30.645Z,1.65
2019-03-26T19:32:58.881Z,2.40
2019-03-26T19:35:27.399Z,2.27
2019-03-26T19:37:55.863Z,2.60
2019-03-26T19:40:24.447Z,2.30
2019-03-26T19:42:52.950Z,2.17
2019-03-26T19:45:21.171Z,2.12
2019-03-26T19:47:49.434Z,1.97
2019-03-26T19:50:17.984Z,2.00
2019-03-26T19:52:46.736Z,1.90
2019-03-26T19:55:15.721Z,1.42
2019-03-26T19:57:43.983Z,1.47
2019-03-26T20:00:13.362Z,1.35
2019-03-26T20:02:41.826Z,1.80
2019-03-26T20:05:10.408Z,1.20
2019-03-26T20:07:38.922Z,2.70
2019-03-26T20:10:07.292Z,1.80
2019-03-26T20:12:35.732Z,1.45
2019-03-26T20:15:04.088Z,2.60
2019-03-26T20:17:32.493Z,3.05
2019-03-26T20:20:00.742Z,2.42
2019-03-26T20:22:29.707Z,1.90
2019-03-26T20:24:58.259Z,2.60
2019-03-26T20:27:26.697Z,2.00
2019-03-26T20:29:55.241Z,2.00
2019-03-26T20:32:23.483Z,1.80
2019-03-26T20:34:51.913Z,2.00
2019-03-26T20:37:20.322Z,1.60
2019-03-26T20:39:49.338Z,1.65
2019-03-26T20:42:17.539Z,1.72
2019-03-26T20:44:46.008Z,2.20
2019-03-26T20:47:14.512Z,1.87
2019-03-26T20:49:42.749Z,2.20
2019-03-26T20:52:11.249Z,2.10
2019-03-26T20:54:39.749Z,1.80
2019-03-26T20:57:08.217Z,2.10
2019-03-26T20:59:36.956Z,2.50
2019-03-26T21:02:05.426Z,1.90
2019-03-26T21:04:34.013Z,2.00
2019-03-26T21:07:02.543Z,2.00
2019-03-26T21:09:31.071Z,1.80
2019-03-26T21:11:59.323Z,1.90
2019-03-26T21:14:27.830Z,2.13
2019-03-26T21:16:56.096Z,2.27
2019-03-26T21:19:24.469Z,2.30
2019-03-26T21:21:53.120Z,2.20
2019-03-26T21:24:22.070Z,4.80
2019-03-26T21:26:50.322Z,2.75
2019-03-26T21:29:18.568Z,3.30
2019-03-26T21:31:46.802Z,2.53
2019-03-26T21:34:15.061Z,4.28
2019-03-26T21:36:43.290Z,16.25
2019-03-26T21:40:40.492Z,5.90
2019-03-26T21:43:08.939Z,3.55
2019-03-26T21:45:39.025Z,6.30
2019-03-26T21:48:08.191Z,3.00
2019-03-26T21:50:36.805Z,4.30
2019-03-26T21:53:05.359Z,3.30
2019-03-26T21:55:33.961Z,3.40
2019-03-26T21:58:02.439Z,2.63
2019-03-26T22:00:31.128Z,2.60
2019-03-26T22:03:00.027Z,2.10
2019-03-26T22:05:28.286Z,2.20
2019-03-26T22:07:56.789Z,2.20
2019-03-26T22:10:25.166Z,2.10
2019-03-26T22:12:53.576Z,2.00
2019-03-26T22:15:22.542Z,2.40
2019-03-26T22:17:51.629Z,2.20
2019-03-26T22:20:20.416Z,2.17
2019-03-26T22:22:49.336Z,2.10
2019-03-26T22:25:17.486Z,2.23
2019-03-26T22:27:46.320Z,2.10
2019-03-26T22:30:14.612Z,2.30
2019-03-26T22:32:43.139Z,2.20
2019-03-26T22:35:11.926Z,2.25
2019-03-26T22:37:41.459Z,2.15
2019-03-26T22:40:17.746Z,2.10
2019-03-26T22:43:03.213Z,2.30
2019-03-26T22:45:34.191Z,2.17
2019-03-26T22:48:02.674Z,2.20
2019-03-26T22:50:31.770Z,2.40
2019-03-26T22:53:09.694Z,1.80
2019-03-26T22:55:47.002Z,2.20
2019-03-26T22:58:15.346Z,2.30
2019-03-26T23:00:44.060Z,2.20
2019-03-26T23:03:12.688Z,2.50
2019-03-26T23:05:49.992Z,2.60
2019-03-26T23:08:24.004Z,2.50
2019-03-26T23:10:52.269Z,2.67
2019-03-26T23:13:21.106Z,2.80
2019-03-26T23:15:49.685Z,2.50
2019-03-26T23:18:39.218Z,2.80
2019-03-26T23:21:08.155Z,2.50
2019-03-26T23:23:37.040Z,3.00
2019-03-26T23:26:05.335Z,3.20
2019-03-26T23:28:33.557Z,3.45
2019-03-26T23:31:01.797Z,3.72
2019-03-26T23:33:30.007Z,4.20
2019-03-26T23:35:58.285Z,4.37
2019-03-26T23:38:26.809Z,4.40
2019-03-26T23:40:55.693Z,4.50
2019-03-26T23:43:23.928Z,4.90
2019-03-26T23:45:52.234Z,5.40
2019-03-26T23:48:21.144Z,5.12
2019-03-26T23:50:49.402Z,5.08
2019-03-26T23:53:17.632Z,5.50
2019-03-26T23:55:46.140Z,5.40
2019-03-26T23:58:14.449Z,5.03
